sensor_id;sensor_type;location;lat;lon;timestamp;temperature;humidity
23681;DHT22;62915;50.832;4.462;2023-05-09T00:01:55;16.20;99.90
23681;DHT22;62915;50.832;4.462;2023-05-09T00:04:23;16.20;99.90
23681;DHT22;62915;50.832;4.462;2023-05-09T00:06:49;16.10;99.90
23681;DHT22;62915;50.832;4.462;2023-05-09T00:09:15;16.10;99.90
23681;DHT22;62915;50.832;4.462;2023-05-09T00:11:41;16.00;99.90
23681;DHT22;62915;50.832;4.462;2023-05-09T00:14:08;16.00;99.90
23681;DHT22;62915;50.832;4.462;2023-05-09T00:16:34;15.90;99.90
23681;DHT22;62915;50.832;4.462;2023-05-09T00:19:01;15.90;99.90
23681;DHT22;62915;50.832;4.462;2023-05-09T00:21:29;16.10;99.90
23681;DHT22;62915;50.832;4.462;2023-05-09T00:23:55;16.10;99.90
23681;DHT22;62915;50.832;4.462;2023-05-09T00:26:21;16.10;99.90
23681;DHT22;62915;50.832;4.462;2023-05-09T00:28:47;16.10;99.90
23681;DHT22;62915;50.832;4.462;2023-05-09T00:31:13;16.10;99.90
23681;DHT22;62915;50.832;4.462;2023-05-09T00:33:39;16.00;99.90
23681;DHT22;62915;50.832;4.462;2023-05-09T00:36:05;16.10;99.90
23681;DHT22;62915;50.832;4.462;2023-05-09T00:38:31;16.20;99.90
23681;DHT22;62915;50.832;4.462;2023-05-09T00:40:57;16.10;99.90
23681;DHT22;62915;50.832;4.462;2023-05-09T00:43:22;16.20;99.90
23681;DHT22;62915;50.832;4.462;2023-05-09T00:45:49;16.20;99.90
23681;DHT22;62915;50.832;4.462;2023-05-09T00:48:15;16.20;99.90
23681;DHT22;62915;50.832;4.462;2023-05-09T00:50:41;16.20;99.90
23681;DHT22;62915;50.832;4.462;2023-05-09T00:53:08;16.20;99.90
23681;DHT22;62915;50.832;4.462;2023-05-09T00:55:34;16.10;99.90
23681;DHT22;62915;50.832;4.462;2023-05-09T00:58:01;16.00;99.90
23681;DHT22;62915;50.832;4.462;2023-05-09T01:00:27;15.90;99.90
23681;DHT22;62915;50.832;4.462;2023-05-09T01:02:54;15.90;99.90
23681;DHT22;62915;50.832;4.462;2023-05-09T01:05:23;15.80;99.90
23681;DHT22;62915;50.832;4.462;2023-05-09T01:08:00;16.00;99.90
23681;DHT22;62915;50.832;4.462;2023-05-09T01:10:38;16.00;99.90
23681;DHT22;62915;50.832;4.462;2023-05-09T01:13:22;15.90;99.90
23681;DHT22;62915;50.832;4.462;2023-05-09T01:16:00;16.00;99.90
23681;DHT22;62915;50.832;4.462;2023-05-09T01:18:46;16.00;99.90
23681;DHT22;62915;50.832;4.462;2023-05-09T01:21:23;15.90;99.90
23681;DHT22;62915;50.832;4.462;2023-05-09T01:32:00;15.90;99.90
23681;DHT22;62915;50.832;4.462;2023-05-09T01:34:28;15.80;99.90
23681;DHT22;62915;50.832;4.462;2023-05-09T01:36:58;15.80;99.90
23681;DHT22;62915;50.832;4.462;2023-05-09T01:39:26;15.80;99.90
23681;DHT22;62915;50.832;4.462;2023-05-09T01:41:54;15.80;99.90
23681;DHT22;62915;50.832;4.462;2023-05-09T01:44:21;15.80;99.90
23681;DHT22;62915;50.832;4.462;2023-05-09T01:46:49;15.90;99.90
23681;DHT22;62915;50.832;4.462;2023-05-09T01:49:17;15.90;99.90
23681;DHT22;62915;50.832;4.462;2023-05-09T01:51:44;15.80;99.90
23681;DHT22;62915;50.832;4.462;2023-05-09T01:54:11;15.90;99.90
23681;DHT22;62915;50.832;4.462;2023-05-09T01:56:37;15.90;99.90
23681;DHT22;62915;50.832;4.462;2023-05-09T01:59:05;15.90;99.90
23681;DHT22;62915;50.832;4.462;2023-05-09T02:01:33;15.80;99.90
23681;DHT22;62915;50.832;4.462;2023-05-09T02:04:01;15.80;99.90
23681;DHT22;62915;50.832;4.462;2023-05-09T02:06:28;15.70;99.90
23681;DHT22;62915;50.832;4.462;2023-05-09T02:08:54;15.80;99.90
23681;DHT22;62915;50.832;4.462;2023-05-09T02:11:21;15.80;99.90
23681;DHT22;62915;50.832;4.462;2023-05-09T02:13:47;15.80;99.90
23681;DHT22;62915;50.832;4.462;2023-05-09T02:16:13;15.80;99.90
23681;DHT22;62915;50.832;4.462;2023-05-09T02:18:39;15.80;99.90
23681;DHT22;62915;50.832;4.462;2023-05-09T02:21:05;15.80;99.90
23681;DHT22;62915;50.832;4.462;2023-05-09T02:23:31;15.90;99.90
23681;DHT22;62915;50.832;4.462;2023-05-09T02:25:56;15.90;99.90
23681;DHT22;62915;50.832;4.462;2023-05-09T02:28:22;15.70;99.90
23681;DHT22;62915;50.832;4.462;2023-05-09T02:30:51;15.80;99.90
23681;DHT22;62915;50.832;4.462;2023-05-09T02:33:17;15.80;99.90
23681;DHT22;62915;50.832;4.462;2023-05-09T02:35:44;15.80;99.90
23681;DHT22;62915;50.832;4.462;2023-05-09T02:38:11;15.80;99.90
23681;DHT22;62915;50.832;4.462;2023-05-09T02:40:38;15.90;99.90
23681;DHT22;62915;50.832;4.462;2023-05-09T02:43:04;15.90;99.90
23681;DHT22;62915;50.832;4.462;2023-05-09T02:45:30;15.80;99.90
23681;DHT22;62915;50.832;4.462;2023-05-09T02:47:56;15.70;99.90
23681;DHT22;62915;50.832;4.462;2023-05-09T02:50:22;15.70;99.90
23681;DHT22;62915;50.832;4.462;2023-05-09T02:52:48;15.70;99.90
23681;DHT22;62915;50.832;4.462;2023-05-09T02:55:14;15.70;99.90
23681;DHT22;62915;50.832;4.462;2023-05-09T02:57:39;15.70;99.90
23681;DHT22;62915;50.832;4.462;2023-05-09T03:00:06;15.70;99.90
23681;DHT22;62915;50.832;4.462;2023-05-09T03:02:35;15.70;99.90
23681;DHT22;62915;50.832;4.462;2023-05-09T03:05:01;15.70;99.90
23681;DHT22;62915;50.832;4.462;2023-05-09T03:07:28;15.80;99.90
23681;DHT22;62915;50.832;4.462;2023-05-09T03:09:54;15.80;99.90
23681;DHT22;62915;50.832;4.462;2023-05-09T03:12:20;15.80;99.90
23681;DHT22;62915;50.832;4.462;2023-05-09T03:14:46;15.80;99.90
23681;DHT22;62915;50.832;4.462;2023-05-09T03:17:12;15.80;99.90
23681;DHT22;62915;50.832;4.462;2023-05-09T03:19:41;15.80;99.90
23681;DHT22;62915;50.832;4.462;2023-05-09T03:22:07;15.70;99.90
23681;DHT22;62915;50.832;4.462;2023-05-09T03:24:33;15.60;99.90
23681;DHT22;62915;50.832;4.462;2023-05-09T03:26:59;15.60;99.90
23681;DHT22;62915;50.832;4.462;2023-05-09T03:29:25;15.70;99.90
23681;DHT22;62915;50.832;4.462;2023-05-09T03:31:50;15.70;99.90
23681;DHT22;62915;50.832;4.462;2023-05-09T03:34:16;15.70;99.90
23681;DHT22;62915;50.832;4.462;2023-05-09T03:36:43;15.80;99.90
23681;DHT22;62915;50.832;4.462;2023-05-09T03:39:09;15.80;99.90
23681;DHT22;62915;50.832;4.462;2023-05-09T03:41:35;15.80;99.90
23681;DHT22;62915;50.832;4.462;2023-05-09T03:44:02;15.70;99.90
23681;DHT22;62915;50.832;4.462;2023-05-09T03:46:28;15.70;99.90
23681;DHT22;62915;50.832;4.462;2023-05-09T03:48:54;15.70;99.90
23681;DHT22;62915;50.832;4.462;2023-05-09T03:51:19;15.60;99.90
23681;DHT22;62915;50.832;4.462;2023-05-09T03:53:46;15.70;99.90
23681;DHT22;62915;50.832;4.462;2023-05-09T03:56:12;15.70;99.90
23681;DHT22;62915;50.832;4.462;2023-05-09T03:58:38;15.70;99.90
23681;DHT22;62915;50.832;4.462;2023-05-09T04:01:05;15.60;99.90
23681;DHT22;62915;50.832;4.462;2023-05-09T04:03:31;15.70;99.90
23681;DHT22;62915;50.832;4.462;2023-05-09T04:05:57;15.60;99.90
23681;DHT22;62915;50.832;4.462;2023-05-09T04:08:23;15.70;99.90
23681;DHT22;62915;50.832;4.462;2023-05-09T04:10:49;15.70;99.90
23681;DHT22;62915;50.832;4.462;2023-05-09T04:13:15;15.70;99.90
23681;DHT22;62915;50.832;4.462;2023-05-09T04:15:41;15.50;99.90
23681;DHT22;62915;50.832;4.462;2023-05-09T04:18:07;15.50;99.90
23681;DHT22;62915;50.832;4.462;2023-05-09T04:20:33;15.50;99.90
23681;DHT22;62915;50.832;4.462;2023-05-09T04:22:59;15.60;99.90
23681;DHT22;62915;50.832;4.462;2023-05-09T04:25:25;15.50;99.90
23681;DHT22;62915;50.832;4.462;2023-05-09T04:27:50;15.60;99.90
23681;DHT22;62915;50.832;4.462;2023-05-09T04:30:17;15.70;99.90
23681;DHT22;62915;50.832;4.462;2023-05-09T04:32:42;15.60;99.90
23681;DHT22;62915;50.832;4.462;2023-05-09T04:35:12;15.60;99.90
23681;DHT22;62915;50.832;4.462;2023-05-09T04:37:38;15.60;99.90
23681;DHT22;62915;50.832;4.462;2023-05-09T04:40:04;15.60;99.90
23681;DHT22;62915;50.832;4.462;2023-05-09T04:42:30;15.60;99.90
23681;DHT22;62915;50.832;4.462;2023-05-09T04:45:00;15.80;99.90
23681;DHT22;62915;50.832;4.462;2023-05-09T04:47:26;15.90;99.90
23681;DHT22;62915;50.832;4.462;2023-05-09T04:49:52;15.80;99.90
23681;DHT22;62915;50.832;4.462;2023-05-09T04:52:17;15.90;99.90
23681;DHT22;62915;50.832;4.462;2023-05-09T04:54:43;16.00;99.90
23681;DHT22;62915;50.832;4.462;2023-05-09T04:57:09;15.90;99.90
23681;DHT22;62915;50.832;4.462;2023-05-09T04:59:36;16.00;99.90
23681;DHT22;62915;50.832;4.462;2023-05-09T05:02:02;15.80;99.90
23681;DHT22;62915;50.832;4.462;2023-05-09T05:04:28;15.70;99.90
23681;DHT22;62915;50.832;4.462;2023-05-09T05:06:54;15.70;99.90
23681;DHT22;62915;50.832;4.462;2023-05-09T05:09:20;15.70;99.90
23681;DHT22;62915;50.832;4.462;2023-05-09T05:11:45;15.80;99.90
23681;DHT22;62915;50.832;4.462;2023-05-09T05:14:11;15.70;99.90
23681;DHT22;62915;50.832;4.462;2023-05-09T05:16:37;15.70;99.90
23681;DHT22;62915;50.832;4.462;2023-05-09T05:19:03;15.70;99.90
23681;DHT22;62915;50.832;4.462;2023-05-09T05:21:29;15.70;99.90
23681;DHT22;62915;50.832;4.462;2023-05-09T05:23:54;15.70;99.90
23681;DHT22;62915;50.832;4.462;2023-05-09T05:26:20;15.60;99.90
23681;DHT22;62915;50.832;4.462;2023-05-09T05:28:46;15.70;99.90
23681;DHT22;62915;50.832;4.462;2023-05-09T05:31:12;15.80;99.90
23681;DHT22;62915;50.832;4.462;2023-05-09T05:33:38;15.80;99.90
23681;DHT22;62915;50.832;4.462;2023-05-09T05:36:03;15.80;99.90
23681;DHT22;62915;50.832;4.462;2023-05-09T05:38:29;15.80;99.90
23681;DHT22;62915;50.832;4.462;2023-05-09T05:40:55;15.80;99.90
23681;DHT22;62915;50.832;4.462;2023-05-09T05:43:21;15.70;99.90
23681;DHT22;62915;50.832;4.462;2023-05-09T05:45:47;15.80;99.90
23681;DHT22;62915;50.832;4.462;2023-05-09T05:48:12;15.70;99.90
23681;DHT22;62915;50.832;4.462;2023-05-09T05:50:38;15.80;99.90
23681;DHT22;62915;50.832;4.462;2023-05-09T05:53:04;15.70;99.90
23681;DHT22;62915;50.832;4.462;2023-05-09T05:55:30;15.60;99.90
23681;DHT22;62915;50.832;4.462;2023-05-09T05:57:56;15.60;99.90
23681;DHT22;62915;50.832;4.462;2023-05-09T06:00:22;15.70;99.90
23681;DHT22;62915;50.832;4.462;2023-05-09T06:02:47;15.70;99.90
23681;DHT22;62915;50.832;4.462;2023-05-09T06:05:13;15.70;99.90
23681;DHT22;62915;50.832;4.462;2023-05-09T06:07:39;15.70;99.90
23681;DHT22;62915;50.832;4.462;2023-05-09T06:10:06;15.70;99.90
23681;DHT22;62915;50.832;4.462;2023-05-09T06:12:32;15.60;99.90
23681;DHT22;62915;50.832;4.462;2023-05-09T06:14:58;15.70;99.90
23681;DHT22;62915;50.832;4.462;2023-05-09T06:17:24;15.80;99.90
23681;DHT22;62915;50.832;4.462;2023-05-09T06:19:49;15.80;99.90
23681;DHT22;62915;50.832;4.462;2023-05-09T06:22:15;15.80;99.90
23681;DHT22;62915;50.832;4.462;2023-05-09T06:24:41;15.80;99.90
23681;DHT22;62915;50.832;4.462;2023-05-09T06:27:07;15.90;99.90
23681;DHT22;62915;50.832;4.462;2023-05-09T06:29:33;15.90;99.90
23681;DHT22;62915;50.832;4.462;2023-05-09T06:31:58;15.80;99.90
23681;DHT22;62915;50.832;4.462;2023-05-09T06:34:24;15.80;99.90
23681;DHT22;62915;50.832;4.462;2023-05-09T06:36:50;15.90;99.90
23681;DHT22;62915;50.832;4.462;2023-05-09T06:39:16;15.80;99.90
23681;DHT22;62915;50.832;4.462;2023-05-09T06:41:41;15.90;99.90
23681;DHT22;62915;50.832;4.462;2023-05-09T06:44:07;15.80;99.90
23681;DHT22;62915;50.832;4.462;2023-05-09T06:46:33;15.80;99.90
23681;DHT22;62915;50.832;4.462;2023-05-09T06:48:58;15.70;99.90
23681;DHT22;62915;50.832;4.462;2023-05-09T06:51:26;15.70;99.90
23681;DHT22;62915;50.832;4.462;2023-05-09T06:53:52;15.80;99.90
23681;DHT22;62915;50.832;4.462;2023-05-09T06:56:17;15.90;99.90
23681;DHT22;62915;50.832;4.462;2023-05-09T06:58:45;15.90;99.90
23681;DHT22;62915;50.832;4.462;2023-05-09T07:01:11;15.90;99.90
23681;DHT22;62915;50.832;4.462;2023-05-09T07:03:37;15.80;99.90
23681;DHT22;62915;50.832;4.462;2023-05-09T07:06:03;15.90;99.90
23681;DHT22;62915;50.832;4.462;2023-05-09T07:08:28;15.90;99.90
23681;DHT22;62915;50.832;4.462;2023-05-09T07:10:54;15.90;99.90
23681;DHT22;62915;50.832;4.462;2023-05-09T07:13:20;16.00;99.90
23681;DHT22;62915;50.832;4.462;2023-05-09T07:15:46;16.00;99.90
23681;DHT22;62915;50.832;4.462;2023-05-09T07:18:12;16.10;99.90
23681;DHT22;62915;50.832;4.462;2023-05-09T07:20:37;16.00;99.90
23681;DHT22;62915;50.832;4.462;2023-05-09T07:23:03;16.00;99.90
23681;DHT22;62915;50.832;4.462;2023-05-09T07:25:30;16.00;99.90
23681;DHT22;62915;50.832;4.462;2023-05-09T07:27:56;16.10;99.90
23681;DHT22;62915;50.832;4.462;2023-05-09T07:30:21;16.10;99.90
23681;DHT22;62915;50.832;4.462;2023-05-09T07:32:47;16.10;99.90
23681;DHT22;62915;50.832;4.462;2023-05-09T07:35:13;16.00;99.90
23681;DHT22;62915;50.832;4.462;2023-05-09T07:37:38;16.10;99.90
23681;DHT22;62915;50.832;4.462;2023-05-09T07:40:05;15.90;99.90
23681;DHT22;62915;50.832;4.462;2023-05-09T07:42:31;16.00;99.90
23681;DHT22;62915;50.832;4.462;2023-05-09T07:44:58;16.00;99.90
23681;DHT22;62915;50.832;4.462;2023-05-09T07:47:24;16.00;99.90
23681;DHT22;62915;50.832;4.462;2023-05-09T07:49:50;16.20;99.90
23681;DHT22;62915;50.832;4.462;2023-05-09T07:52:16;16.10;99.90
23681;DHT22;62915;50.832;4.462;2023-05-09T07:54:42;16.00;99.90
23681;DHT22;62915;50.832;4.462;2023-05-09T07:57:08;16.00;99.90
23681;DHT22;62915;50.832;4.462;2023-05-09T07:59:34;16.00;99.90
23681;DHT22;62915;50.832;4.462;2023-05-09T08:02:00;16.00;99.90
23681;DHT22;62915;50.832;4.462;2023-05-09T08:04:26;15.90;99.90
23681;DHT22;62915;50.832;4.462;2023-05-09T08:06:51;16.10;99.90
23681;DHT22;62915;50.832;4.462;2023-05-09T08:09:17;16.00;99.90
23681;DHT22;62915;50.832;4.462;2023-05-09T08:11:43;16.00;99.90
23681;DHT22;62915;50.832;4.462;2023-05-09T08:14:09;16.10;99.90
23681;DHT22;62915;50.832;4.462;2023-05-09T08:16:35;16.10;99.90
23681;DHT22;62915;50.832;4.462;2023-05-09T08:19:01;16.10;99.90
23681;DHT22;62915;50.832;4.462;2023-05-09T08:21:27;16.20;99.90
23681;DHT22;62915;50.832;4.462;2023-05-09T08:23:53;16.20;99.90
23681;DHT22;62915;50.832;4.462;2023-05-09T08:26:18;16.20;99.90
23681;DHT22;62915;50.832;4.462;2023-05-09T08:28:44;16.20;99.90
23681;DHT22;62915;50.832;4.462;2023-05-09T08:31:10;16.30;99.90
23681;DHT22;62915;50.832;4.462;2023-05-09T08:33:35;16.20;99.90
23681;DHT22;62915;50.832;4.462;2023-05-09T08:36:01;16.20;99.90
23681;DHT22;62915;50.832;4.462;2023-05-09T08:38:27;16.10;99.90
23681;DHT22;62915;50.832;4.462;2023-05-09T08:40:59;16.00;99.90
23681;DHT22;62915;50.832;4.462;2023-05-09T08:43:27;15.90;99.90
23681;DHT22;62915;50.832;4.462;2023-05-09T08:45:58;16.00;99.90
23681;DHT22;62915;50.832;4.462;2023-05-09T08:48:25;16.10;99.90
23681;DHT22;62915;50.832;4.462;2023-05-09T08:50:54;16.10;99.90
23681;DHT22;62915;50.832;4.462;2023-05-09T08:53:20;16.10;99.90
23681;DHT22;62915;50.832;4.462;2023-05-09T08:55:48;16.00;99.90
23681;DHT22;62915;50.832;4.462;2023-05-09T08:58:14;16.20;99.90
23681;DHT22;62915;50.832;4.462;2023-05-09T09:00:41;16.10;99.90
23681;DHT22;62915;50.832;4.462;2023-05-09T09:03:07;16.10;99.90
23681;DHT22;62915;50.832;4.462;2023-05-09T09:05:36;16.00;99.90
23681;DHT22;62915;50.832;4.462;2023-05-09T09:08:03;15.90;99.90
23681;DHT22;62915;50.832;4.462;2023-05-09T09:10:32;15.90;99.90
23681;DHT22;62915;50.832;4.462;2023-05-09T09:12:59;15.90;99.90
23681;DHT22;62915;50.832;4.462;2023-05-09T09:15:32;16.10;99.90
23681;DHT22;62915;50.832;4.462;2023-05-09T09:17:59;16.20;99.90
23681;DHT22;62915;50.832;4.462;2023-05-09T09:20:30;16.20;99.90
23681;DHT22;62915;50.832;4.462;2023-05-09T09:22:59;16.30;99.90
23681;DHT22;62915;50.832;4.462;2023-05-09T09:25:28;16.00;99.90
23681;DHT22;62915;50.832;4.462;2023-05-09T09:27:53;15.90;99.90
23681;DHT22;62915;50.832;4.462;2023-05-09T09:30:23;15.90;99.90
23681;DHT22;62915;50.832;4.462;2023-05-09T09:32:49;16.00;99.90
23681;DHT22;62915;50.832;4.462;2023-05-09T09:35:16;16.00;99.90
23681;DHT22;62915;50.832;4.462;2023-05-09T09:37:42;15.90;99.90
23681;DHT22;62915;50.832;4.462;2023-05-09T09:40:09;15.90;99.90
23681;DHT22;62915;50.832;4.462;2023-05-09T09:42:45;15.90;99.90
23681;DHT22;62915;50.832;4.462;2023-05-09T09:45:16;15.80;99.90
23681;DHT22;62915;50.832;4.462;2023-05-09T09:47:43;15.80;99.90
23681;DHT22;62915;50.832;4.462;2023-05-09T09:50:10;15.60;99.90
23681;DHT22;62915;50.832;4.462;2023-05-09T09:53:02;15.60;99.90
23681;DHT22;62915;50.832;4.462;2023-05-09T09:55:28;15.70;99.90
23681;DHT22;62915;50.832;4.462;2023-05-09T09:57:54;15.80;99.90
23681;DHT22;62915;50.832;4.462;2023-05-09T10:00:27;15.90;99.90
23681;DHT22;62915;50.832;4.462;2023-05-09T10:02:55;15.90;99.90
23681;DHT22;62915;50.832;4.462;2023-05-09T10:05:23;15.90;99.90
23681;DHT22;62915;50.832;4.462;2023-05-09T10:07:50;15.90;99.90
23681;DHT22;62915;50.832;4.462;2023-05-09T10:10:17;16.00;99.90
23681;DHT22;62915;50.832;4.462;2023-05-09T10:12:44;15.90;99.90
23681;DHT22;62915;50.832;4.462;2023-05-09T10:15:11;15.90;99.90
23681;DHT22;62915;50.832;4.462;2023-05-09T10:17:41;16.00;99.90
23681;DHT22;62915;50.832;4.462;2023-05-09T10:20:08;16.10;99.90
23681;DHT22;62915;50.832;4.462;2023-05-09T10:22:36;16.20;99.90
23681;DHT22;62915;50.832;4.462;2023-05-09T10:25:04;16.10;99.90
23681;DHT22;62915;50.832;4.462;2023-05-09T10:27:34;16.00;99.90
23681;DHT22;62915;50.832;4.462;2023-05-09T10:30:07;15.90;99.90
23681;DHT22;62915;50.832;4.462;2023-05-09T10:32:54;16.00;99.90
23681;DHT22;62915;50.832;4.462;2023-05-09T10:35:29;16.20;99.90
23681;DHT22;62915;50.832;4.462;2023-05-09T10:37:56;16.20;99.90
23681;DHT22;62915;50.832;4.462;2023-05-09T10:40:22;16.20;99.90
23681;DHT22;62915;50.832;4.462;2023-05-09T10:42:48;16.20;99.90
23681;DHT22;62915;50.832;4.462;2023-05-09T10:45:14;16.20;99.90
23681;DHT22;62915;50.832;4.462;2023-05-09T10:47:42;16.30;99.90
23681;DHT22;62915;50.832;4.462;2023-05-09T10:50:10;16.20;99.90
23681;DHT22;62915;50.832;4.462;2023-05-09T10:55:55;16.30;99.90
23681;DHT22;62915;50.832;4.462;2023-05-09T10:58:31;16.20;99.90
23681;DHT22;62915;50.832;4.462;2023-05-09T11:01:03;16.20;99.90
23681;DHT22;62915;50.832;4.462;2023-05-09T11:03:55;16.10;99.90
23681;DHT22;62915;50.832;4.462;2023-05-09T11:14:38;16.20;99.90
23681;DHT22;62915;50.832;4.462;2023-05-09T11:22:13;16.20;99.90
23681;DHT22;62915;50.832;4.462;2023-05-09T11:24:46;16.20;99.90
23681;DHT22;62915;50.832;4.462;2023-05-09T11:27:23;16.20;99.90
23681;DHT22;62915;50.832;4.462;2023-05-09T11:29:58;16.10;99.90
23681;DHT22;62915;50.832;4.462;2023-05-09T11:32:29;16.10;99.90
23681;DHT22;62915;50.832;4.462;2023-05-09T11:35:15;16.10;99.90
23681;DHT22;62915;50.832;4.462;2023-05-09T11:37:45;16.20;99.90
23681;DHT22;62915;50.832;4.462;2023-05-09T11:40:13;16.20;99.90
23681;DHT22;62915;50.832;4.462;2023-05-09T11:42:47;16.30;99.90
23681;DHT22;62915;50.832;4.462;2023-05-09T11:45:15;16.20;99.90
23681;DHT22;62915;50.832;4.462;2023-05-09T11:47:41;16.00;99.90
23681;DHT22;62915;50.832;4.462;2023-05-09T11:50:09;16.00;99.90
23681;DHT22;62915;50.832;4.462;2023-05-09T11:52:36;16.00;99.90
23681;DHT22;62915;50.832;4.462;2023-05-09T11:55:09;16.10;99.90
23681;DHT22;62915;50.832;4.462;2023-05-09T11:57:45;16.20;99.90
23681;DHT22;62915;50.832;4.462;2023-05-09T12:00:18;16.20;99.90
23681;DHT22;62915;50.832;4.462;2023-05-09T12:02:45;16.30;99.90
23681;DHT22;62915;50.832;4.462;2023-05-09T12:05:16;16.30;99.90
23681;DHT22;62915;50.832;4.462;2023-05-09T12:07:44;16.20;99.90
23681;DHT22;62915;50.832;4.462;2023-05-09T12:10:14;16.20;99.90
23681;DHT22;62915;50.832;4.462;2023-05-09T12:12:47;16.10;99.90
23681;DHT22;62915;50.832;4.462;2023-05-09T12:15:13;16.10;99.90
23681;DHT22;62915;50.832;4.462;2023-05-09T12:17:41;16.20;99.90
23681;DHT22;62915;50.832;4.462;2023-05-09T12:20:08;16.10;99.90
23681;DHT22;62915;50.832;4.462;2023-05-09T12:22:35;16.00;99.90
23681;DHT22;62915;50.832;4.462;2023-05-09T12:25:05;15.70;99.90
23681;DHT22;62915;50.832;4.462;2023-05-09T12:27:33;15.60;99.90
23681;DHT22;62915;50.832;4.462;2023-05-09T12:30:00;15.60;99.90
23681;DHT22;62915;50.832;4.462;2023-05-09T12:32:28;15.60;99.90
23681;DHT22;62915;50.832;4.462;2023-05-09T12:35:00;15.40;99.90
23681;DHT22;62915;50.832;4.462;2023-05-09T12:37:26;15.30;99.90
23681;DHT22;62915;50.832;4.462;2023-05-09T12:40:11;15.50;99.90
23681;DHT22;62915;50.832;4.462;2023-05-09T12:42:43;15.60;99.90
23681;DHT22;62915;50.832;4.462;2023-05-09T12:45:09;15.60;99.90
23681;DHT22;62915;50.832;4.462;2023-05-09T12:47:35;15.70;99.90
23681;DHT22;62915;50.832;4.462;2023-05-09T12:50:04;15.70;99.90
23681;DHT22;62915;50.832;4.462;2023-05-09T12:52:38;15.60;99.90
23681;DHT22;62915;50.832;4.462;2023-05-09T12:55:13;15.60;99.90
23681;DHT22;62915;50.832;4.462;2023-05-09T12:57:39;15.70;99.90
23681;DHT22;62915;50.832;4.462;2023-05-09T13:00:07;15.70;99.90
23681;DHT22;62915;50.832;4.462;2023-05-09T13:02:38;15.70;99.90
23681;DHT22;62915;50.832;4.462;2023-05-09T13:07:44;15.60;99.90
23681;DHT22;62915;50.832;4.462;2023-05-09T13:10:28;15.60;99.90
23681;DHT22;62915;50.832;4.462;2023-05-09T13:12:54;15.20;99.90
23681;DHT22;62915;50.832;4.462;2023-05-09T13:15:21;15.20;99.90
23681;DHT22;62915;50.832;4.462;2023-05-09T13:17:48;15.30;99.90
23681;DHT22;62915;50.832;4.462;2023-05-09T13:20:15;15.30;99.90
23681;DHT22;62915;50.832;4.462;2023-05-09T13:22:41;15.40;99.90
23681;DHT22;62915;50.832;4.462;2023-05-09T13:25:08;15.40;99.90
23681;DHT22;62915;50.832;4.462;2023-05-09T13:27:35;15.50;99.90
23681;DHT22;62915;50.832;4.462;2023-05-09T13:30:02;15.40;99.90
23681;DHT22;62915;50.832;4.462;2023-05-09T13:32:28;15.40;99.90
23681;DHT22;62915;50.832;4.462;2023-05-09T13:34:54;15.40;99.90
23681;DHT22;62915;50.832;4.462;2023-05-09T13:37:19;15.40;99.90
23681;DHT22;62915;50.832;4.462;2023-05-09T13:39:46;15.50;99.90
23681;DHT22;62915;50.832;4.462;2023-05-09T13:42:12;15.50;99.90
23681;DHT22;62915;50.832;4.462;2023-05-09T13:44:38;15.50;99.90
23681;DHT22;62915;50.832;4.462;2023-05-09T13:47:04;15.60;99.90
23681;DHT22;62915;50.832;4.462;2023-05-09T13:49:32;15.50;99.90
23681;DHT22;62915;50.832;4.462;2023-05-09T13:51:58;15.50;99.90
23681;DHT22;62915;50.832;4.462;2023-05-09T13:54:24;15.50;99.90
23681;DHT22;62915;50.832;4.462;2023-05-09T13:56:49;15.60;99.90
23681;DHT22;62915;50.832;4.462;2023-05-09T13:59:18;15.60;99.90
23681;DHT22;62915;50.832;4.462;2023-05-09T14:01:43;15.50;99.90
23681;DHT22;62915;50.832;4.462;2023-05-09T14:04:09;15.30;99.90
23681;DHT22;62915;50.832;4.462;2023-05-09T14:06:35;15.30;99.90
23681;DHT22;62915;50.832;4.462;2023-05-09T14:09:01;15.40;99.90
23681;DHT22;62915;50.832;4.462;2023-05-09T14:11:26;15.50;99.90
23681;DHT22;62915;50.832;4.462;2023-05-09T14:13:52;15.40;99.90
23681;DHT22;62915;50.832;4.462;2023-05-09T14:16:19;15.50;99.90
23681;DHT22;62915;50.832;4.462;2023-05-09T14:18:45;15.50;99.90
23681;DHT22;62915;50.832;4.462;2023-05-09T14:21:11;15.50;99.90
23681;DHT22;62915;50.832;4.462;2023-05-09T14:23:37;15.50;99.90
23681;DHT22;62915;50.832;4.462;2023-05-09T14:26:03;15.40;99.90
23681;DHT22;62915;50.832;4.462;2023-05-09T14:28:28;15.40;99.90
23681;DHT22;62915;50.832;4.462;2023-05-09T14:30:54;15.40;99.90
23681;DHT22;62915;50.832;4.462;2023-05-09T14:33:20;15.50;99.90
23681;DHT22;62915;50.832;4.462;2023-05-09T14:35:45;15.60;99.90
23681;DHT22;62915;50.832;4.462;2023-05-09T14:38:11;15.60;99.90
23681;DHT22;62915;50.832;4.462;2023-05-09T14:40:38;15.50;99.90
23681;DHT22;62915;50.832;4.462;2023-05-09T14:43:04;15.30;99.90
23681;DHT22;62915;50.832;4.462;2023-05-09T14:45:31;15.30;99.90
23681;DHT22;62915;50.832;4.462;2023-05-09T14:48:00;15.30;99.90
23681;DHT22;62915;50.832;4.462;2023-05-09T14:50:27;15.30;99.90
23681;DHT22;62915;50.832;4.462;2023-05-09T14:52:54;15.30;99.90
23681;DHT22;62915;50.832;4.462;2023-05-09T14:55:20;15.30;99.90
23681;DHT22;62915;50.832;4.462;2023-05-09T14:57:48;15.40;99.90
23681;DHT22;62915;50.832;4.462;2023-05-09T15:00:14;15.40;99.90
23681;DHT22;62915;50.832;4.462;2023-05-09T15:02:41;15.50;99.90
23681;DHT22;62915;50.832;4.462;2023-05-09T15:05:07;15.50;99.90
23681;DHT22;62915;50.832;4.462;2023-05-09T15:07:33;15.40;99.90
23681;DHT22;62915;50.832;4.462;2023-05-09T15:10:00;15.40;99.90
23681;DHT22;62915;50.832;4.462;2023-05-09T15:12:28;15.40;99.90
23681;DHT22;62915;50.832;4.462;2023-05-09T15:14:53;15.50;99.90
23681;DHT22;62915;50.832;4.462;2023-05-09T15:17:20;15.50;99.90
23681;DHT22;62915;50.832;4.462;2023-05-09T15:19:47;15.40;99.90
23681;DHT22;62915;50.832;4.462;2023-05-09T15:22:12;15.40;99.90
23681;DHT22;62915;50.832;4.462;2023-05-09T15:24:38;15.50;99.90
23681;DHT22;62915;50.832;4.462;2023-05-09T15:27:07;15.50;99.90
23681;DHT22;62915;50.832;4.462;2023-05-09T15:29:33;15.50;99.90
23681;DHT22;62915;50.832;4.462;2023-05-09T15:31:59;15.60;99.90
23681;DHT22;62915;50.832;4.462;2023-05-09T15:34:24;15.60;99.90
23681;DHT22;62915;50.832;4.462;2023-05-09T15:36:50;15.60;99.90
23681;DHT22;62915;50.832;4.462;2023-05-09T15:39:16;15.50;99.90
23681;DHT22;62915;50.832;4.462;2023-05-09T15:41:41;15.50;99.90
23681;DHT22;62915;50.832;4.462;2023-05-09T15:44:07;15.50;99.90
23681;DHT22;62915;50.832;4.462;2023-05-09T15:46:33;15.40;99.90
23681;DHT22;62915;50.832;4.462;2023-05-09T15:48:59;15.30;99.90
23681;DHT22;62915;50.832;4.462;2023-05-09T15:51:25;15.30;99.90
23681;DHT22;62915;50.832;4.462;2023-05-09T15:53:53;15.30;99.90
23681;DHT22;62915;50.832;4.462;2023-05-09T15:56:19;15.30;99.90
23681;DHT22;62915;50.832;4.462;2023-05-09T15:58:46;15.40;99.90